NOAA Web Site Link Tides and Currents Home Page Transparent placeholder image

PORTS® Data Listing: 8519483 Bergen Point West Reach, NY

CO-OPS RAW PORTS DATA

************************      PRELIMINARY DATA      ************************** 

     THIS RAW DATA HAS NOT BEEN SUBJECT TO THE NATIONAL OCEAN SERVICE'S        
     QUALITY CONTROL OR QUALITY ASSURANCE PROCEDURES AND DOES NOT MEET         
     THE CRITERIA AND STANDARDS OF OFFICIAL NATIONAL OCEAN SERVICE             
     DATA.  IT IS RELEASED FOR LIMITED PUBLIC USE AS PRELIMINARY DATA TO       
     BE USED ONLY WITH APPROPRIATE CAUTION.                                    

************************      PRELIMINARY DATA      ************************** 


       CD   -   Calendar date
       T    -   Time
       TZ   -   Timezone
       PW   -   Predicted water level (feet above MLLW)
       OW   -   Observed water level (feet above MLLW)
       WS   -   Wind speed (knots)
       WD   -   Wind direction (degrees true)
       WG   -   Wind gust (knots)
       AT   -   Air temperature (degrees farenheit)
       WT   -   Water temperature (degrees farenheit)
       AP   -   Air pressure (millibars)
       SA   -   Salinty (PSU - Practical Salinity Units)
       SG   -   Specific gravity
       RH   -   Relative humidity
       AG   -   Air gap (feet)
       VI   -   Visibility (nautical miles)

       ** NOTE **
       A variable that has its data fields filled with "9"s, indicates that
       data was not collected for that sample period.
       **********


STATION NAME: Bergen Point West Reach (8519483)
****************************************************************************************************
    CD       T    TZ    PW     OW    WS   WD   WG    AT    WT    AP    SA    SG     RH    AG   VI
****************************************************************************************************
2019/06/16 08:36 EDT    5.18   5.40 -999 -999 -999  70.9  66.4 1012.5 -9.9 -9.999 -99.9 -99.99 -9.99
2019/06/16 08:42 EDT    5.15   5.38 -999 -999 -999  71.1  66.4 1012.5 -9.9 -9.999 -99.9 -99.99 -9.99
2019/06/16 08:48 EDT    5.11   5.37 -999 -999 -999  71.4  66.4 1012.5 -9.9 -9.999 -99.9 -99.99 -9.99
2019/06/16 08:54 EDT    5.07   5.34 -999 -999 -999  71.4  66.4 1012.5 -9.9 -9.999 -99.9 -99.99 -9.99
2019/06/16 09:00 EDT    5.02   5.31 -999 -999 -999  72.5  66.4 1012.5 -9.9 -9.999 -99.9 -99.99 -9.99
2019/06/16 09:06 EDT    4.96   5.25 -999 -999 -999  73.2  66.4 1012.5 -9.9 -9.999 -99.9 -99.99 -9.99
2019/06/16 09:12 EDT    4.90   5.21 -999 -999 -999  72.9  66.6 1012.4 -9.9 -9.999 -99.9 -99.99 -9.99
2019/06/16 09:18 EDT    4.82   5.15 -999 -999 -999  73.2  66.6 1012.3 -9.9 -9.999 -99.9 -99.99 -9.99
2019/06/16 09:24 EDT    4.75   5.09 -999 -999 -999  73.8  66.6 1012.2 -9.9 -9.999 -99.9 -99.99 -9.99
2019/06/16 09:30 EDT    4.66   4.98 -999 -999 -999  73.4  66.6 1012.2 -9.9 -9.999 -99.9 -99.99 -9.99
2019/06/16 09:36 EDT    4.57   4.90 -999 -999 -999  73.6  66.6 1012.2 -9.9 -9.999 -99.9 -99.99 -9.99
2019/06/16 09:42 EDT    4.48   4.79 -999 -999 -999  74.3  66.6 1012.2 -9.9 -9.999 -99.9 -99.99 -9.99
2019/06/16 09:48 EDT    4.38   4.72 -999 -999 -999  74.7  66.6 1012.0 -9.9 -9.999 -99.9 -99.99 -9.99
2019/06/16 09:54 EDT    4.28   4.62 -999 -999 -999  74.8  66.7 1011.9 -9.9 -9.999 -99.9 -99.99 -9.99
2019/06/16 10:00 EDT    4.17   4.51 -999 -999 -999  75.7  66.7 1011.8 -9.9 -9.999 -99.9 -99.99 -9.99
2019/06/16 10:06 EDT    4.06   4.39 -999 -999 -999  75.7  66.9 1011.8 -9.9 -9.999 -99.9 -99.99 -9.99
2019/06/16 10:12 EDT    3.95   4.26 -999 -999 -999  75.7  66.9 1011.8 -9.9 -9.999 -99.9 -99.99 -9.99
2019/06/16 10:18 EDT    3.84   4.13 -999 -999 -999  76.5  66.9 1011.8 -9.9 -9.999 -99.9 -99.99 -9.99
2019/06/16 10:24 EDT    3.72   3.97 -999 -999 -999  76.6  66.9 1011.7 -9.9 -9.999 -99.9 -99.99 -9.99
2019/06/16 10:30 EDT    3.60   3.92 -999 -999 -999  76.6  66.9 1011.7 -9.9 -9.999 -99.9 -99.99 -9.99
2019/06/16 10:36 EDT    3.48   3.79 -999 -999 -999  76.8  66.9 1011.6 -9.9 -9.999 -99.9 -99.99 -9.99
2019/06/16 10:42 EDT    3.37   3.67 -999 -999 -999  77.0  66.9 1011.6 -9.9 -9.999 -99.9 -99.99 -9.99
2019/06/16 10:48 EDT    3.25   3.55 -999 -999 -999  76.6  66.9 1011.5 -9.9 -9.999 -99.9 -99.99 -9.99
2019/06/16 10:54 EDT    3.13   3.44 -999 -999 -999  77.0  66.9 1011.6 -9.9 -9.999 -99.9 -99.99 -9.99
2019/06/16 11:00 EDT    3.01   3.33 -999 -999 -999  76.6  66.9 1011.6 -9.9 -9.999 -99.9 -99.99 -9.99
2019/06/16 11:06 EDT    2.89   3.22 -999 -999 -999  77.4  66.9 1011.6 -9.9 -9.999 -99.9 -99.99 -9.99
2019/06/16 11:12 EDT    2.77   3.10 -999 -999 -999  77.0  66.9 1011.5 -9.9 -9.999 -99.9 -99.99 -9.99
2019/06/16 11:18 EDT    2.66   2.98 -999 -999 -999  77.5  66.9 1011.4 -9.9 -9.999 -99.9 -99.99 -9.99
2019/06/16 11:24 EDT    2.54   2.86 -999 -999 -999  78.4  66.9 1011.3 -9.9 -9.999 -99.9 -99.99 -9.99
2019/06/16 11:30 EDT    2.43   2.74 -999 -999 -999  78.1  67.1 1011.0 -9.9 -9.999 -99.9 -99.99 -9.99
2019/06/16 11:36 EDT    2.32   2.62 -999 -999 -999  79.0  67.1 1010.9 -9.9 -9.999 -99.9 -99.99 -9.99
2019/06/16 11:42 EDT    2.20   2.50 -999 -999 -999  78.8  67.5 1010.9 -9.9 -9.999 -99.9 -99.99 -9.99
2019/06/16 11:48 EDT    2.10   2.40 -999 -999 -999  79.9  67.5 1010.8 -9.9 -9.999 -99.9 -99.99 -9.99
2019/06/16 11:54 EDT    1.99   2.29 -999 -999 -999  79.3  67.5 1010.8 -9.9 -9.999 -99.9 -99.99 -9.99
2019/06/16 12:00 EDT    1.88   2.18 -999 -999 -999  80.1  67.6 1010.8 -9.9 -9.999 -99.9 -99.99 -9.99
2019/06/16 12:06 EDT    1.78   2.08 -999 -999 -999  80.2  67.8 1010.9 -9.9 -9.999 -99.9 -99.99 -9.99
2019/06/16 12:12 EDT    1.68   1.98 -999 -999 -999  79.9  67.8 1011.0 -9.9 -9.999 -99.9 -99.99 -9.99
2019/06/16 12:18 EDT    1.58   1.87 -999 -999 -999  80.8  67.8 1010.8 -9.9 -9.999 -99.9 -99.99 -9.99
2019/06/16 12:24 EDT    1.48   1.78 -999 -999 -999  81.1  67.8 1010.9 -9.9 -9.999 -99.9 -99.99 -9.99
2019/06/16 12:30 EDT    1.38   1.70 -999 -999 -999  79.9  67.8 1010.8 -9.9 -9.999 -99.9 -99.99 -9.99
2019/06/16 12:36 EDT    1.29   1.60 -999 -999 -999  80.1  67.8 1010.7 -9.9 -9.999 -99.9 -99.99 -9.99
2019/06/16 12:42 EDT    1.19   1.52 -999 -999 -999  79.5  67.8 1010.7 -9.9 -9.999 -99.9 -99.99 -9.99
2019/06/16 12:48 EDT    1.10   1.42 -999 -999 -999  79.2  67.8 1010.5 -9.9 -9.999 -99.9 -99.99 -9.99
2019/06/16 12:54 EDT    1.01   1.34 -999 -999 -999  79.3  68.0 1010.5 -9.9 -9.999 -99.9 -99.99 -9.99
2019/06/16 13:00 EDT    0.92   1.25 -999 -999 -999  79.5  68.0 1010.7 -9.9 -9.999 -99.9 -99.99 -9.99
2019/06/16 13:06 EDT    0.84   1.18 -999 -999 -999  80.1  68.0 1010.6 -9.9 -9.999 -99.9 -99.99 -9.99
2019/06/16 13:12 EDT    0.75   1.10 -999 -999 -999  80.6  68.0 1010.5 -9.9 -9.999 -99.9 -99.99 -9.99
2019/06/16 13:18 EDT    0.67   1.03 -999 -999 -999  79.7  68.0 1010.4 -9.9 -9.999 -99.9 -99.99 -9.99
2019/06/16 13:24 EDT    0.60   0.96 -999 -999 -999  79.5  68.0 1010.4 -9.9 -9.999 -99.9 -99.99 -9.99
2019/06/16 13:30 EDT    0.52   0.87 -999 -999 -999  79.0  68.0 1010.6 -9.9 -9.999 -99.9 -99.99 -9.99
2019/06/16 13:36 EDT    0.46   0.81 -999 -999 -999  78.6  68.0 1010.6 -9.9 -9.999 -99.9 -99.99 -9.99
2019/06/16 13:42 EDT    0.39   0.70 -999 -999 -999  78.1  68.0 1010.6 -9.9 -9.999 -99.9 -99.99 -9.99
2019/06/16 13:48 EDT    0.33   0.69 -999 -999 -999  77.0  68.0 1010.6 -9.9 -9.999 -99.9 -99.99 -9.99
2019/06/16 13:54 EDT    0.28   0.64 -999 -999 -999  76.3  68.0 1010.4 -9.9 -9.999 -99.9 -99.99 -9.99
2019/06/16 14:00 EDT    0.23   0.59 -999 -999 -999  77.2  68.0 1010.2 -9.9 -9.999 -99.9 -99.99 -9.99
2019/06/16 14:06 EDT    0.18   0.56 -999 -999 -999  79.0  68.0 1010.1 -9.9 -9.999 -99.9 -99.99 -9.99
2019/06/16 14:12 EDT    0.15   0.53 -999 -999 -999  79.7  68.0 1010.2 -9.9 -9.999 -99.9 -99.99 -9.99
2019/06/16 14:18 EDT    0.12   0.50 -999 -999 -999  79.7  68.2 1010.1 -9.9 -9.999 -99.9 -99.99 -9.99
2019/06/16 14:24 EDT    0.09   0.49 -999 -999 -999  80.6  68.2 1009.9 -9.9 -9.999 -99.9 -99.99 -9.99
2019/06/16 14:30 EDT    0.08   0.48 -999 -999 -999  81.3  68.2 1009.7 -9.9 -9.999 -99.9 -99.99 -9.99
2019/06/16 14:36 EDT    0.07   0.48 -999 -999 -999  81.9  68.4 1009.7 -9.9 -9.999 -99.9 -99.99 -9.99
2019/06/16 14:42 EDT    0.08   0.48 -999 -999 -999  81.5  68.4 1009.5 -9.9 -9.999 -99.9 -99.99 -9.99
2019/06/16 14:48 EDT    0.09   0.51 -999 -999 -999  83.1  68.4 1009.5 -9.9 -9.999 -99.9 -99.99 -9.99
2019/06/16 14:54 EDT    0.11   0.51 -999 -999 -999  82.6  68.5 1009.3 -9.9 -9.999 -99.9 -99.99 -9.99
2019/06/16 15:00 EDT    0.14   0.54 -999 -999 -999  83.7  68.5 1009.2 -9.9 -9.999 -99.9 -99.99 -9.99
2019/06/16 15:06 EDT    0.18   0.56 -999 -999 -999  83.5  68.7 1009.1 -9.9 -9.999 -99.9 -99.99 -9.99
2019/06/16 15:12 EDT    0.23   0.62 -999 -999 -999  82.8  68.5 1009.1 -9.9 -9.999 -99.9 -99.99 -9.99
2019/06/16 15:18 EDT    0.28   0.68 -999 -999 -999  82.8  68.5 1009.2 -9.9 -9.999 -99.9 -99.99 -9.99
2019/06/16 15:24 EDT    0.35   0.76 -999 -999 -999  82.6  68.5 1009.2 -9.9 -9.999 -99.9 -99.99 -9.99
2019/06/16 15:30 EDT    0.43   0.83 -999 -999 -999  82.0  68.5 1009.2 -9.9 -9.999 -99.9 -99.99 -9.99
2019/06/16 15:36 EDT    0.52   0.93 -999 -999 -999  82.0  68.4 1009.2 -9.9 -9.999 -99.9 -99.99 -9.99
2019/06/16 15:42 EDT    0.61   1.02 -999 -999 -999  82.0  68.4 1009.2 -9.9 -9.999 -99.9 -99.99 -9.99
2019/06/16 15:48 EDT    0.72   1.14 -999 -999 -999  81.5  68.4 1009.2 -9.9 -9.999 -99.9 -99.99 -9.99
2019/06/16 15:54 EDT    0.83   1.25 -999 -999 -999  81.7  68.5 1009.1 -9.9 -9.999 -99.9 -99.99 -9.99
2019/06/16 16:00 EDT    0.95   1.38 -999 -999 -999  82.2  68.5 1009.1 -9.9 -9.999 -99.9 -99.99 -9.99
2019/06/16 16:06 EDT    1.08   1.50 -999 -999 -999  82.0  68.5 1009.1 -9.9 -9.999 -99.9 -99.99 -9.99
2019/06/16 16:12 EDT    1.22   1.65 -999 -999 -999  81.9  68.5 1009.1 -9.9 -9.999 -99.9 -99.99 -9.99
2019/06/16 16:18 EDT    1.36   1.80 -999 -999 -999  82.4  68.4 1009.1 -9.9 -9.999 -99.9 -99.99 -9.99
2019/06/16 16:24 EDT    1.51   1.94 -999 -999 -999  82.0  68.4 1009.0 -9.9 -9.999 -99.9 -99.99 -9.99
2019/06/16 16:30 EDT    1.66   2.11 -999 -999 -999  81.7  68.2 1008.9 -9.9 -9.999 -99.9 -99.99 -9.99
2019/06/16 16:36 EDT    1.81   2.28 -999 -999 -999  81.9  68.2 1008.8 -9.9 -9.999 -99.9 -99.99 -9.99
2019/06/16 16:42 EDT    1.98   2.44 -999 -999 -999  81.5  68.4 1008.7 -9.9 -9.999 -99.9 -99.99 -9.99
2019/06/16 16:48 EDT    2.14   2.62 -999 -999 -999  81.5  68.4 1008.8 -9.9 -9.999 -99.9 -99.99 -9.99
2019/06/16 16:54 EDT    2.30   2.78 -999 -999 -999  81.7  68.4 1008.8 -9.9 -9.999 -99.9 -99.99 -9.99
2019/06/16 17:00 EDT    2.47   2.95 -999 -999 -999  81.9  68.4 1008.8 -9.9 -9.999 -99.9 -99.99 -9.99
2019/06/16 17:06 EDT    2.64   3.10 -999 -999 -999  81.9  68.4 1008.7 -9.9 -9.999 -99.9 -99.99 -9.99
2019/06/16 17:12 EDT    2.81   3.26 -999 -999 -999  81.7  68.4 1008.7 -9.9 -9.999 -99.9 -99.99 -9.99
2019/06/16 17:18 EDT    2.98   3.41 -999 -999 -999  81.3  68.2 1008.7 -9.9 -9.999 -99.9 -99.99 -9.99
2019/06/16 17:24 EDT    3.15   3.56 -999 -999 -999  81.9  68.0 1008.8 -9.9 -9.999 -99.9 -99.99 -9.99
2019/06/16 17:30 EDT    3.31   3.75 -999 -999 -999  81.9  67.6 1008.8 -9.9 -9.999 -99.9 -99.99 -9.99
2019/06/16 17:36 EDT    3.48   3.91 -999 -999 -999  81.9  67.5 1008.8 -9.9 -9.999 -99.9 -99.99 -9.99
2019/06/16 17:42 EDT    3.64   4.08 -999 -999 -999  81.7  67.3 1008.7 -9.9 -9.999 -99.9 -99.99 -9.99
2019/06/16 17:48 EDT    3.80   4.24 -999 -999 -999  81.7  67.3 1008.7 -9.9 -9.999 -99.9 -99.99 -9.99
2019/06/16 17:54 EDT    3.96   4.41 -999 -999 -999  81.3  67.3 1008.8 -9.9 -9.999 -99.9 -99.99 -9.99
2019/06/16 18:00 EDT    4.11   4.56 -999 -999 -999  81.3  67.3 1008.8 -9.9 -9.999 -99.9 -99.99 -9.99
2019/06/16 18:06 EDT    4.26   4.70 -999 -999 -999  80.8  67.3 1008.8 -9.9 -9.999 -99.9 -99.99 -9.99
2019/06/16 18:12 EDT    4.41   4.83 -999 -999 -999  80.8  67.3 1008.8 -9.9 -9.999 -99.9 -99.99 -9.99
2019/06/16 18:18 EDT    4.55   4.96 -999 -999 -999  79.5  67.3 1009.0 -9.9 -9.999 -99.9 -99.99 -9.99
2019/06/16 18:24 EDT    4.69   5.08 -999 -999 -999  75.7  67.3 1009.4 -9.9 -9.999 -99.9 -99.99 -9.99
2019/06/16 18:30 EDT    4.82   5.19 -999 -999 -999  74.8  67.3 1009.5 -9.9 -9.999 -99.9 -99.99 -9.99
2019/06/16 18:36 EDT    4.95   5.30 -999 -999 -999  74.7  67.3 1009.6 -9.9 -9.999 -99.9 -99.99 -9.99
2019/06/16 18:42 EDT    5.07   5.38 -999 -999 -999  74.8  67.1 1009.6 -9.9 -9.999 -99.9 -99.99 -9.99
2019/06/16 18:48 EDT    5.19   5.48 -999 -999 -999  75.0  67.1 1009.7 -9.9 -9.999 -99.9 -99.99 -9.99
2019/06/16 18:54 EDT    5.30   5.57 -999 -999 -999  74.5  67.1 1009.7 -9.9 -9.999 -99.9 -99.99 -9.99
2019/06/16 19:00 EDT    5.41   5.65 -999 -999 -999  74.1  67.1 1009.7 -9.9 -9.999 -99.9 -99.99 -9.99
2019/06/16 19:06 EDT    5.51   5.71 -999 -999 -999  73.8  67.1 1009.6 -9.9 -9.999 -99.9 -99.99 -9.99
2019/06/16 19:12 EDT    5.61   5.79 -999 -999 -999  73.6  67.1 1009.7 -9.9 -9.999 -99.9 -99.99 -9.99
2019/06/16 19:18 EDT    5.70   5.83 -999 -999 -999  73.6  67.1 1009.9 -9.9 -9.999 -99.9 -99.99 -9.99
2019/06/16 19:24 EDT    5.79   5.87 -999 -999 -999  73.4  66.9 1009.8 -9.9 -9.999 -99.9 -99.99 -9.99
2019/06/16 19:30 EDT    5.87   5.92 -999 -999 -999  73.6  66.9 1009.8 -9.9 -9.999 -99.9 -99.99 -9.99
2019/06/16 19:36 EDT    5.94   5.97 -999 -999 -999  73.4  66.9 1009.9 -9.9 -9.999 -99.9 -99.99 -9.99
2019/06/16 19:42 EDT    6.01   6.02 -999 -999 -999  73.4  66.9 1009.9 -9.9 -9.999 -99.9 -99.99 -9.99
2019/06/16 19:48 EDT    6.07   6.06 -999 -999 -999  73.4  66.9 1009.8 -9.9 -9.999 -99.9 -99.99 -9.99
2019/06/16 19:54 EDT    6.13   6.11 -999 -999 -999  73.2  66.9 1009.9 -9.9 -9.999 -99.9 -99.99 -9.99
2019/06/16 20:00 EDT    6.17   6.14 -999 -999 -999  73.2  66.9 1009.7 -9.9 -9.999 -99.9 -99.99 -9.99
2019/06/16 20:06 EDT    6.21   6.18 -999 -999 -999  73.0  66.9 1009.8 -9.9 -9.999 -99.9 -99.99 -9.99
2019/06/16 20:12 EDT    6.25   6.20 -999 -999 -999  73.0  66.9 1009.7 -9.9 -9.999 -99.9 -99.99 -9.99
2019/06/16 20:18 EDT    6.27   6.24 -999 -999 -999  72.9  66.9 1009.8 -9.9 -9.999 -99.9 -99.99 -9.99
2019/06/16 20:24 EDT    6.29   6.28 -999 -999 -999  72.9  66.9 1009.8 -9.9 -9.999 -99.9 -99.99 -9.99
2019/06/16 20:30 EDT    6.31   6.32 -999 -999 -999  72.7  66.9 1009.8 -9.9 -9.999 -99.9 -99.99 -9.99
2019/06/16 20:36 EDT    6.31   6.35 -999 -999 -999  72.5  66.9 1009.9 -9.9 -9.999 -99.9 -99.99 -9.99
2019/06/16 20:42 EDT    6.31   6.38 -999 -999 -999  72.5  66.9 1009.9 -9.9 -9.999 -99.9 -99.99 -9.99
2019/06/16 20:48 EDT    6.30   6.38 -999 -999 -999  72.5  66.9 1009.9 -9.9 -9.999 -99.9 -99.99 -9.99
2019/06/16 20:54 EDT    6.28   6.41 -999 -999 -999  72.7  66.9 1010.1 -9.9 -9.999 -99.9 -99.99 -9.99
2019/06/16 21:00 EDT    6.25   6.42 -999 -999 -999 -99.9 -99.9 -999.9 -9.9 -9.999 -99.9 -99.99 -9.99
2019/06/16 21:06 EDT    6.21   6.43 -999 -999 -999  72.7  66.9 1010.3 -9.9 -9.999 -99.9 -99.99 -9.99
2019/06/16 21:12 EDT    6.17   6.42 -999 -999 -999  72.7  66.9 1010.3 -9.9 -9.999 -99.9 -99.99 -9.99
2019/06/16 21:18 EDT    6.12   6.41 -999 -999 -999  72.7  66.9 1010.3 -9.9 -9.999 -99.9 -99.99 -9.99
2019/06/16 21:24 EDT    6.06   6.39 -999 -999 -999  72.9  66.9 1010.4 -9.9 -9.999 -99.9 -99.99 -9.99
2019/06/16 21:30 EDT    5.99   6.36 -999 -999 -999  72.9  66.9 1010.4 -9.9 -9.999 -99.9 -99.99 -9.99
2019/06/16 21:36 EDT    5.92   6.31 -999 -999 -999  72.9  66.9 1010.5 -9.9 -9.999 -99.9 -99.99 -9.99
2019/06/16 21:42 EDT    5.84   6.25 -999 -999 -999  72.7  66.9 1010.5 -9.9 -9.999 -99.9 -99.99 -9.99
2019/06/16 21:48 EDT    5.75   6.17 -999 -999 -999  72.7  67.1 1010.5 -9.9 -9.999 -99.9 -99.99 -9.99
2019/06/16 21:54 EDT    5.66   6.07 -999 -999 -999  72.5  67.1 1010.5 -9.9 -9.999 -99.9 -99.99 -9.99
2019/06/16 22:00 EDT    5.56   6.00 -999 -999 -999  72.5  67.1 1010.5 -9.9 -9.999 -99.9 -99.99 -9.99
2019/06/16 22:06 EDT    5.46   5.89 -999 -999 -999  72.5  67.1 1010.5 -9.9 -9.999 -99.9 -99.99 -9.99
2019/06/16 22:12 EDT    5.35   5.77 -999 -999 -999  72.7  67.1 1010.6 -9.9 -9.999 -99.9 -99.99 -9.99
2019/06/16 22:18 EDT    5.23   5.64 -999 -999 -999  72.7  67.1 1010.5 -9.9 -9.999 -99.9 -99.99 -9.99
2019/06/16 22:24 EDT    5.11   5.52 -999 -999 -999  72.7  67.1 1010.5 -9.9 -9.999 -99.9 -99.99 -9.99
2019/06/16 22:30 EDT    4.99   5.38 -999 -999 -999  72.7  67.1 1010.6 -9.9 -9.999 -99.9 -99.99 -9.99
2019/06/16 22:36 EDT    4.86   5.22 -999 -999 -999  72.7  67.1 1010.6 -9.9 -9.999 -99.9 -99.99 -9.99
2019/06/16 22:42 EDT    4.73   5.08 -999 -999 -999  72.7  67.1 1010.7 -9.9 -9.999 -99.9 -99.99 -9.99
2019/06/16 22:48 EDT    4.60   4.93 -999 -999 -999  72.5  67.1 1010.6 -9.9 -9.999 -99.9 -99.99 -9.99
2019/06/16 22:54 EDT    4.47   4.80 -999 -999 -999  72.5  67.1 1010.7 -9.9 -9.999 -99.9 -99.99 -9.99
2019/06/16 23:00 EDT    4.33   4.65 -999 -999 -999  72.5  67.1 1010.7 -9.9 -9.999 -99.9 -99.99 -9.99
2019/06/16 23:06 EDT    4.19   4.51 -999 -999 -999  72.3  67.1 1010.7 -9.9 -9.999 -99.9 -99.99 -9.99
2019/06/16 23:12 EDT    4.06   4.35 -999 -999 -999  72.3  67.1 1010.7 -9.9 -9.999 -99.9 -99.99 -9.99
2019/06/16 23:18 EDT    3.92   4.21 -999 -999 -999  72.3  67.1 1010.8 -9.9 -9.999 -99.9 -99.99 -9.99
2019/06/16 23:24 EDT    3.78   4.05 -999 -999 -999  72.3  67.3 1010.7 -9.9 -9.999 -99.9 -99.99 -9.99
2019/06/16 23:30 EDT    3.64   3.89 -999 -999 -999  72.1  67.3 1010.7 -9.9 -9.999 -99.9 -99.99 -9.99
2019/06/16 23:36 EDT    3.50   3.75 -999 -999 -999  72.1  67.3 1010.7 -9.9 -9.999 -99.9 -99.99 -9.99
2019/06/16 23:42 EDT    3.37   3.59 -999 -999 -999  72.0  67.3 1010.8 -9.9 -9.999 -99.9 -99.99 -9.99
2019/06/16 23:48 EDT    3.23   3.43 -999 -999 -999  72.0  67.3 1010.8 -9.9 -9.999 -99.9 -99.99 -9.99
2019/06/16 23:54 EDT    3.09   3.25 -999 -999 -999  72.0  67.3 1010.7 -9.9 -9.999 -99.9 -99.99 -9.99
2019/06/17 00:00 EDT    2.96   3.09 -999 -999 -999  72.1  67.3 1010.8 -9.9 -9.999 -99.9 -99.99 -9.99
2019/06/17 00:06 EDT    2.82   2.93 -999 -999 -999  72.1  67.3 1010.7 -9.9 -9.999 -99.9 -99.99 -9.99
2019/06/17 00:12 EDT    2.69   2.77 -999 -999 -999  72.3  67.3 1010.7 -9.9 -9.999 -99.9 -99.99 -9.99
2019/06/17 00:18 EDT    2.56   2.61 -999 -999 -999  72.5  67.3 1010.7 -9.9 -9.999 -99.9 -99.99 -9.99
2019/06/17 00:24 EDT    2.43   2.45 -999 -999 -999  72.7  67.3 1010.7 -9.9 -9.999 -99.9 -99.99 -9.99
2019/06/17 00:30 EDT    2.30   2.30 -999 -999 -999  72.1  67.3 1010.6 -9.9 -9.999 -99.9 -99.99 -9.99
2019/06/17 00:36 EDT    2.17   2.16 -999 -999 -999  72.1  67.3 1010.6 -9.9 -9.999 -99.9 -99.99 -9.99
2019/06/17 00:42 EDT    2.04   2.02 -999 -999 -999  72.0  67.5 1010.6 -9.9 -9.999 -99.9 -99.99 -9.99
2019/06/17 00:48 EDT    1.91   1.88 -999 -999 -999  72.3  67.5 1010.7 -9.9 -9.999 -99.9 -99.99 -9.99
2019/06/17 00:54 EDT    1.79   1.76 -999 -999 -999  73.0  67.5 1010.7 -9.9 -9.999 -99.9 -99.99 -9.99
2019/06/17 01:00 EDT    1.67   1.64 -999 -999 -999  73.0  67.5 1010.7 -9.9 -9.999 -99.9 -99.99 -9.99
2019/06/17 01:06 EDT    1.54   1.53 -999 -999 -999  73.0  67.6 1010.6 -9.9 -9.999 -99.9 -99.99 -9.99
2019/06/17 01:12 EDT    1.42   1.43 -999 -999 -999  72.7  67.6 1010.7 -9.9 -9.999 -99.9 -99.99 -9.99
2019/06/17 01:18 EDT    1.30   1.34 -999 -999 -999  72.3  67.6 1010.6 -9.9 -9.999 -99.9 -99.99 -9.99
2019/06/17 01:24 EDT    1.18   1.25 -999 -999 -999  72.0  67.6 1010.5 -9.9 -9.999 -99.9 -99.99 -9.99
2019/06/17 01:30 EDT    1.07   1.17 -999 -999 -999  72.3  67.6 1010.6 -9.9 -9.999 -99.9 -99.99 -9.99
2019/06/17 01:36 EDT    0.96   1.09 -999 -999 -999  72.3  67.6 1010.6 -9.9 -9.999 -99.9 -99.99 -9.99
2019/06/17 01:42 EDT    0.85   1.01 -999 -999 -999  72.5  67.6 1010.6 -9.9 -9.999 -99.9 -99.99 -9.99
2019/06/17 01:48 EDT    0.74   0.95 -999 -999 -999  72.3  67.8 1010.6 -9.9 -9.999 -99.9 -99.99 -9.99
2019/06/17 01:54 EDT    0.63   0.88 -999 -999 -999  72.0  67.8 1010.6 -9.9 -9.999 -99.9 -99.99 -9.99
2019/06/17 02:00 EDT    0.53   0.81 -999 -999 -999  71.8  67.8 1010.7 -9.9 -9.999 -99.9 -99.99 -9.99
2019/06/17 02:06 EDT    0.44   0.75 -999 -999 -999  72.5  68.0 1010.8 -9.9 -9.999 -99.9 -99.99 -9.99
2019/06/17 02:12 EDT    0.34   0.69 -999 -999 -999  72.5  68.2 1010.9 -9.9 -9.999 -99.9 -99.99 -9.99
2019/06/17 02:18 EDT    0.26   0.63 -999 -999 -999  72.5  68.2 1010.9 -9.9 -9.999 -99.9 -99.99 -9.99
2019/06/17 02:24 EDT    0.17   0.58 -999 -999 -999  72.5  68.2 1011.0 -9.9 -9.999 -99.9 -99.99 -9.99
2019/06/17 02:30 EDT    0.10 -99.99 -999 -999 -999 -99.9 -99.9 -999.9 -9.9 -9.999 -99.9 -99.99 -9.99
2019/06/17 02:36 EDT    0.03 -99.99 -999 -999 -999 -99.9 -99.9 -999.9 -9.9 -9.999 -99.9 -99.99 -9.99
2019/06/17 02:42 EDT   -0.03 -99.99 -999 -999 -999 -99.9 -99.9 -999.9 -9.9 -9.999 -99.9 -99.99 -9.99
2019/06/17 02:48 EDT   -0.09 -99.99 -999 -999 -999 -99.9 -99.9 -999.9 -9.9 -9.999 -99.9 -99.99 -9.99
2019/06/17 02:54 EDT   -0.13 -99.99 -999 -999 -999 -99.9 -99.9 -999.9 -9.9 -9.999 -99.9 -99.99 -9.99
2019/06/17 03:00 EDT   -0.17 -99.99 -999 -999 -999 -99.9 -99.9 -999.9 -9.9 -9.999 -99.9 -99.99 -9.99
2019/06/17 03:06 EDT   -0.20 -99.99 -999 -999 -999 -99.9 -99.9 -999.9 -9.9 -9.999 -99.9 -99.99 -9.99
2019/06/17 03:12 EDT   -0.22 -99.99 -999 -999 -999 -99.9 -99.9 -999.9 -9.9 -9.999 -99.9 -99.99 -9.99
2019/06/17 03:18 EDT   -0.23 -99.99 -999 -999 -999 -99.9 -99.9 -999.9 -9.9 -9.999 -99.9 -99.99 -9.99
2019/06/17 03:24 EDT   -0.23 -99.99 -999 -999 -999 -99.9 -99.9 -999.9 -9.9 -9.999 -99.9 -99.99 -9.99
2019/06/17 03:30 EDT   -0.22 -99.99 -999 -999 -999 -99.9 -99.9 -999.9 -9.9 -9.999 -99.9 -99.99 -9.99
2019/06/17 03:36 EDT   -0.20 -99.99 -999 -999 -999 -99.9 -99.9 -999.9 -9.9 -9.999 -99.9 -99.99 -9.99
2019/06/17 03:42 EDT   -0.17 -99.99 -999 -999 -999 -99.9 -99.9 -999.9 -9.9 -9.999 -99.9 -99.99 -9.99
2019/06/17 03:48 EDT   -0.13 -99.99 -999 -999 -999 -99.9 -99.9 -999.9 -9.9 -9.999 -99.9 -99.99 -9.99
2019/06/17 03:54 EDT   -0.08 -99.99 -999 -999 -999 -99.9 -99.9 -999.9 -9.9 -9.999 -99.9 -99.99 -9.99
2019/06/17 04:00 EDT   -0.02 -99.99 -999 -999 -999 -99.9 -99.9 -999.9 -9.9 -9.999 -99.9 -99.99 -9.99
2019/06/17 04:06 EDT    0.05 -99.99 -999 -999 -999 -99.9 -99.9 -999.9 -9.9 -9.999 -99.9 -99.99 -9.99
2019/06/17 04:12 EDT    0.13 -99.99 -999 -999 -999 -99.9 -99.9 -999.9 -9.9 -9.999 -99.9 -99.99 -9.99
2019/06/17 04:18 EDT    0.22 -99.99 -999 -999 -999 -99.9 -99.9 -999.9 -9.9 -9.999 -99.9 -99.99 -9.99
2019/06/17 04:24 EDT    0.32 -99.99 -999 -999 -999 -99.9 -99.9 -999.9 -9.9 -9.999 -99.9 -99.99 -9.99
2019/06/17 04:30 EDT    0.42 -99.99 -999 -999 -999 -99.9 -99.9 -999.9 -9.9 -9.999 -99.9 -99.99 -9.99
2019/06/17 04:36 EDT    0.53 -99.99 -999 -999 -999 -99.9 -99.9 -999.9 -9.9 -9.999 -99.9 -99.99 -9.99
2019/06/17 04:42 EDT    0.65 -99.99 -999 -999 -999 -99.9 -99.9 -999.9 -9.9 -9.999 -99.9 -99.99 -9.99
2019/06/17 04:48 EDT    0.78 -99.99 -999 -999 -999 -99.9 -99.9 -999.9 -9.9 -9.999 -99.9 -99.99 -9.99
2019/06/17 04:54 EDT    0.91 -99.99 -999 -999 -999 -99.9 -99.9 -999.9 -9.9 -9.999 -99.9 -99.99 -9.99
2019/06/17 05:00 EDT    1.04 -99.99 -999 -999 -999 -99.9 -99.9 -999.9 -9.9 -9.999 -99.9 -99.99 -9.99
2019/06/17 05:06 EDT    1.19 -99.99 -999 -999 -999 -99.9 -99.9 -999.9 -9.9 -9.999 -99.9 -99.99 -9.99
2019/06/17 05:12 EDT    1.33 -99.99 -999 -999 -999 -99.9 -99.9 -999.9 -9.9 -9.999 -99.9 -99.99 -9.99
2019/06/17 05:18 EDT    1.48 -99.99 -999 -999 -999 -99.9 -99.9 -999.9 -9.9 -9.999 -99.9 -99.99 -9.99
2019/06/17 05:24 EDT    1.63 -99.99 -999 -999 -999 -99.9 -99.9 -999.9 -9.9 -9.999 -99.9 -99.99 -9.99
2019/06/17 05:30 EDT    1.78 -99.99 -999 -999 -999 -99.9 -99.9 -999.9 -9.9 -9.999 -99.9 -99.99 -9.99
2019/06/17 05:36 EDT    1.93 -99.99 -999 -999 -999 -99.9 -99.9 -999.9 -9.9 -9.999 -99.9 -99.99 -9.99
2019/06/17 05:42 EDT    2.08 -99.99 -999 -999 -999 -99.9 -99.9 -999.9 -9.9 -9.999 -99.9 -99.99 -9.99
2019/06/17 05:48 EDT    2.24 -99.99 -999 -999 -999 -99.9 -99.9 -999.9 -9.9 -9.999 -99.9 -99.99 -9.99
2019/06/17 05:54 EDT    2.39 -99.99 -999 -999 -999 -99.9 -99.9 -999.9 -9.9 -9.999 -99.9 -99.99 -9.99
2019/06/17 06:00 EDT    2.54 -99.99 -999 -999 -999 -99.9 -99.9 -999.9 -9.9 -9.999 -99.9 -99.99 -9.99
2019/06/17 06:06 EDT    2.69 -99.99 -999 -999 -999 -99.9 -99.9 -999.9 -9.9 -9.999 -99.9 -99.99 -9.99
2019/06/17 06:12 EDT    2.84 -99.99 -999 -999 -999 -99.9 -99.9 -999.9 -9.9 -9.999 -99.9 -99.99 -9.99
2019/06/17 06:18 EDT    2.98 -99.99 -999 -999 -999 -99.9 -99.9 -999.9 -9.9 -9.999 -99.9 -99.99 -9.99
2019/06/17 06:24 EDT    3.12 -99.99 -999 -999 -999 -99.9 -99.9 -999.9 -9.9 -9.999 -99.9 -99.99 -9.99
2019/06/17 06:30 EDT    3.26 -99.99 -999 -999 -999 -99.9 -99.9 -999.9 -9.9 -9.999 -99.9 -99.99 -9.99
2019/06/17 06:36 EDT    3.40 -99.99 -999 -999 -999 -99.9 -99.9 -999.9 -9.9 -9.999 -99.9 -99.99 -9.99
2019/06/17 06:42 EDT    3.53 -99.99 -999 -999 -999 -99.9 -99.9 -999.9 -9.9 -9.999 -99.9 -99.99 -9.99
2019/06/17 06:48 EDT    3.65 -99.99 -999 -999 -999 -99.9 -99.9 -999.9 -9.9 -9.999 -99.9 -99.99 -9.99
2019/06/17 06:54 EDT    3.78 -99.99 -999 -999 -999 -99.9 -99.9 -999.9 -9.9 -9.999 -99.9 -99.99 -9.99
2019/06/17 07:00 EDT    3.90 -99.99 -999 -999 -999 -99.9 -99.9 -999.9 -9.9 -9.999 -99.9 -99.99 -9.99
2019/06/17 07:06 EDT    4.01 -99.99 -999 -999 -999 -99.9 -99.9 -999.9 -9.9 -9.999 -99.9 -99.99 -9.99
2019/06/17 07:12 EDT    4.12 -99.99 -999 -999 -999 -99.9 -99.9 -999.9 -9.9 -9.999 -99.9 -99.99 -9.99
2019/06/17 07:18 EDT    4.23 -99.99 -999 -999 -999 -99.9 -99.9 -999.9 -9.9 -9.999 -99.9 -99.99 -9.99
2019/06/17 07:24 EDT    4.33 -99.99 -999 -999 -999 -99.9 -99.9 -999.9 -9.9 -9.999 -99.9 -99.99 -9.99
2019/06/17 07:30 EDT    4.42 -99.99 -999 -999 -999 -99.9 -99.9 -999.9 -9.9 -9.999 -99.9 -99.99 -9.99
2019/06/17 07:36 EDT    4.51 -99.99 -999 -999 -999 -99.9 -99.9 -999.9 -9.9 -9.999 -99.9 -99.99 -9.99
2019/06/17 07:42 EDT    4.60 -99.99 -999 -999 -999 -99.9 -99.9 -999.9 -9.9 -9.999 -99.9 -99.99 -9.99
2019/06/17 07:48 EDT    4.68 -99.99 -999 -999 -999 -99.9 -99.9 -999.9 -9.9 -9.999 -99.9 -99.99 -9.99
2019/06/17 07:54 EDT    4.75 -99.99 -999 -999 -999 -99.9 -99.9 -999.9 -9.9 -9.999 -99.9 -99.99 -9.99
2019/06/17 08:00 EDT    4.82 -99.99 -999 -999 -999 -99.9 -99.9 -999.9 -9.9 -9.999 -99.9 -99.99 -9.99
2019/06/17 08:06 EDT    4.88 -99.99 -999 -999 -999 -99.9 -99.9 -999.9 -9.9 -9.999 -99.9 -99.99 -9.99
2019/06/17 08:12 EDT    4.94 -99.99 -999 -999 -999 -99.9 -99.9 -999.9 -9.9 -9.999 -99.9 -99.99 -9.99
2019/06/17 08:18 EDT    4.99 -99.99 -999 -999 -999 -99.9 -99.9 -999.9 -9.9 -9.999 -99.9 -99.99 -9.99
2019/06/17 08:24 EDT    5.04 -99.99 -999 -999 -999 -99.9 -99.9 -999.9 -9.9 -9.999 -99.9 -99.99 -9.99
2019/06/17 08:30 EDT    5.08 -99.99 -999 -999 -999 -99.9 -99.9 -999.9 -9.9 -9.999 -99.9 -99.99 -9.99
2019/06/17 08:36 EDT    5.11 -99.99 -999 -999 -999 -99.9 -99.9 -999.9 -9.9 -9.999 -99.9 -99.99 -9.99

Revised: 08/08/2018
NOAA / National Ocean Service
Web site owner: Center for Operational Oceanographic Products and Services